Time;durP1;ratioP1;P1;durP2;ratioP2;P2;SDS_P1;SDS_P2;PMS_P1;PMS_P2;Temp;Humidity;BMP_temperature;BMP_pressure;BME280_temperature;BME280_humidity;BME280_pressure;Samples;Min_cycle;Max_cycle;Signal;HPM_P1;HPM_P2
2022/05/28 00:00:53;;;;;;;11.38;3.20;;;;;;;14.13;51.44;102130.09;5004257;28;20034;-60
2022/05/28 00:03:21;;;;;;;11.65;3.50;;;;;;;14.07;51.52;102126.34;5010542;28;20036;-60
2022/05/28 00:05:50;;;;;;;11.60;3.35;;;;;;;14.05;51.59;102125.72;5010681;28;20040;-60
2022/05/28 00:08:16;;;;;;;15.35;3.63;;;;;;;14.03;51.69;102119.56;5003386;28;20377;-61
2022/05/28 00:10:43;;;;;;;9.40;3.25;;;;;;;13.93;51.92;102122.13;5003099;28;20053;-60
2022/05/28 00:13:08;;;;;;;10.55;3.75;;;;;;;13.99;52.02;102110.00;5000335;28;20377;-60
2022/05/28 00:15:34;;;;;;;10.23;3.13;;;;;;;14.00;51.93;102115.31;5010008;28;20022;-60
2022/05/28 00:17:59;;;;;;;11.00;3.60;;;;;;;13.98;52.00;102108.25;5005345;28;20030;-61
2022/05/28 00:20:26;;;;;;;13.18;3.40;;;;;;;13.88;52.28;102111.69;4999655;28;20112;-60
2022/05/28 00:22:51;;;;;;;11.38;3.00;;;;;;;13.87;52.19;102101.63;5010789;28;20030;-61
2022/05/28 00:25:17;;;;;;;13.18;3.33;;;;;;;13.93;52.46;102099.78;5009172;28;20164;-61
2022/05/28 00:27:43;;;;;;;14.10;4.28;;;;;;;13.87;52.80;102104.41;5006520;28;20752;-61
2022/05/28 00:30:11;;;;;;;12.15;3.75;;;;;;;13.93;52.80;102099.78;5010561;28;20385;-61
2022/05/28 00:32:37;;;;;;;11.35;3.53;;;;;;;13.98;52.21;102095.16;5013160;28;20084;-61
2022/05/28 00:35:07;;;;;;;10.73;3.58;;;;;;;13.95;52.79;102101.25;5009571;28;20033;-61
2022/05/28 00:37:32;;;;;;;10.27;3.05;;;;;;;13.88;52.86;102099.69;5014737;28;20370;-61
2022/05/28 00:40:00;;;;;;;14.82;3.50;;;;;;;13.90;52.59;102089.09;5012835;28;20046;-61
2022/05/28 00:42:26;;;;;;;11.35;3.30;;;;;;;13.88;52.77;102096.91;5013799;28;20398;-61
2022/05/28 00:44:51;;;;;;;14.48;3.55;;;;;;;13.96;52.91;102090.94;5002259;28;20514;-62
2022/05/28 00:47:17;;;;;;;14.05;3.65;;;;;;;13.90;53.05;102094.69;5011583;28;20034;-61
2022/05/28 00:49:43;;;;;;;12.40;3.80;;;;;;;13.97;52.98;102095.41;5005476;28;20054;-61
2022/05/28 00:52:08;;;;;;;11.40;4.07;;;;;;;13.99;53.48;102094.09;5014624;28;20123;-61
2022/05/28 00:54:45;;;;;;;15.38;3.83;;;;;;;13.94;53.25;102096.75;5012886;28;20026;-61
2022/05/28 00:57:12;;;;;;;13.23;4.20;;;;;;;13.94;53.24;102107.06;5013502;28;20033;-61
2022/05/28 00:59:37;;;;;;;13.27;4.07;;;;;;;13.95;53.53;102097.59;5014486;28;20032;-61
2022/05/28 01:02:12;;;;;;;11.20;3.78;;;;;;;13.93;53.56;102091.41;5010069;28;20141;-61
2022/05/28 01:05:04;;;;;;;11.85;3.80;;;;;;;14.04;52.96;102095.28;5012952;28;20152;-61
2022/05/28 01:07:40;;;;;;;14.23;3.80;;;;;;;14.00;53.22;102089.34;5011844;28;20048;-61
2022/05/28 01:10:47;;;;;;;9.10;3.92;;;;;;;14.09;52.72;102087.84;5012380;28;20025;-61
2022/05/28 01:13:23;;;;;;;13.68;3.63;;;;;;;14.04;53.06;102090.53;4973497;28;20041;-61
2022/05/28 01:16:11;;;;;;;18.42;4.18;;;;;;;14.00;53.18;102080.97;5007379;28;20029;-61
2022/05/28 01:18:49;;;;;;;12.65;3.80;;;;;;;13.98;53.25;102078.41;5011748;28;20034;-61
2022/05/28 01:21:31;;;;;;;11.95;4.05;;;;;;;13.97;53.21;102073.91;5018795;28;20547;-61
2022/05/28 01:24:14;;;;;;;15.80;4.60;;;;;;;13.98;53.03;102074.78;5007923;28;20027;-61
2022/05/28 01:26:57;;;;;;;15.93;4.05;;;;;;;13.94;53.06;102077.19;5005752;28;20135;-61
2022/05/28 01:29:28;;;;;;;13.90;4.43;;;;;;;13.85;53.54;102069.47;4997607;28;20065;-61
2022/05/28 01:31:54;;;;;;;11.98;4.13;;;;;;;13.85;53.33;102069.47;5011313;28;20022;-61
2022/05/28 01:34:21;;;;;;;12.60;3.95;;;;;;;13.90;53.26;102070.41;5012840;28;20092;-61
2022/05/28 01:36:48;;;;;;;17.40;4.13;;;;;;;13.79;53.64;102065.69;5013023;28;20037;-61
2022/05/28 01:39:18;;;;;;;12.07;4.00;;;;;;;13.79;53.96;102071.28;5012286;28;20137;-61
2022/05/28 01:41:47;;;;;;;12.90;3.97;;;;;;;13.79;53.81;102076.00;4997813;28;20037;-61
2022/05/28 01:44:15;;;;;;;14.93;3.90;;;;;;;13.83;53.68;102063.25;5012705;28;20481;-61
2022/05/28 01:46:42;;;;;;;11.38;3.80;;;;;;;13.78;53.96;102065.97;5011357;28;20030;-61
2022/05/28 01:49:11;;;;;;;13.82;3.92;;;;;;;13.72;53.91;102065.00;5011132;28;20404;-61
2022/05/28 01:51:40;;;;;;;14.45;3.90;;;;;;;13.79;53.93;102074.06;5010277;28;20064;-62
2022/05/28 01:54:11;;;;;;;16.90;3.67;;;;;;;13.78;53.70;102071.53;5014006;28;20092;-62
2022/05/28 01:56:51;;;;;;;15.27;4.32;;;;;;;13.84;53.94;102067.78;5002938;28;20112;-61
2022/05/28 01:59:23;;;;;;;12.82;3.95;;;;;;;13.77;54.07;102069.84;5009289;28;20084;-61
2022/05/28 02:01:49;;;;;;;16.17;4.30;;;;;;;13.74;54.14;102068.38;5006746;28;20033;-61
2022/05/28 02:04:15;;;;;;;11.30;4.03;;;;;;;13.69;54.24;102060.75;5013628;28;20818;-62
2022/05/28 02:06:41;;;;;;;17.85;4.25;;;;;;;13.65;54.43;102081.03;5001261;28;20026;-61
2022/05/28 02:09:11;;;;;;;11.45;4.13;;;;;;;13.66;54.67;102075.19;5008528;28;20446;-62
2022/05/28 02:12:07;;;;;;;10.70;3.80;;;;;;;13.73;54.35;102073.13;5007230;28;20030;-62
2022/05/28 02:14:54;;;;;;;10.68;3.50;;;;;;;13.68;54.61;102072.16;5012917;28;20590;-61
2022/05/28 02:17:31;;;;;;;12.98;3.72;;;;;;;13.65;55.17;102072.66;5010857;28;20034;-61
2022/05/28 02:20:08;;;;;;;14.55;4.15;;;;;;;13.64;54.70;102073.75;5012289;28;20025;-61
2022/05/28 02:22:33;;;;;;;12.40;3.67;;;;;;;13.54;55.22;102068.75;5011744;28;20046;-61
2022/05/28 02:25:06;;;;;;;13.05;3.95;;;;;;;13.50;55.47;102073.97;5013111;28;20084;-61
2022/05/28 02:27:31;;;;;;;;;;;;;;;13.78;53.58;102066.78;5008989;28;20038;-61
2022/05/28 02:30:01;;;;;;;12.15;4.10;;;;;;;13.49;55.20;102069.50;5012432;28;19964;-61
2022/05/28 02:32:26;;;;;;;13.98;4.10;;;;;;;13.45;55.57;102064.66;5012718;28;20108;-61
2022/05/28 02:34:52;;;;;;;10.85;4.10;;;;;;;13.48;55.63;102069.75;4999948;28;20483;-61
2022/05/28 02:37:23;;;;;;;14.73;4.35;;;;;;;13.43;55.95;102064.88;5008639;28;20026;-61
2022/05/28 02:39:49;;;;;;;12.15;4.05;;;;;;;13.43;55.39;102056.50;5012846;28;20049;-61
2022/05/28 02:42:15;;;;;;;12.05;3.97;;;;;;;13.39;56.12;102060.88;5011011;28;20112;-61
2022/05/28 02:44:43;;;;;;;11.90;3.72;;;;;;;13.33;55.87;102050.72;5011835;28;20516;-61
2022/05/28 02:47:09;;;;;;;12.93;4.20;;;;;;;13.38;55.94;102061.97;5012170;28;20018;-61
2022/05/28 02:49:34;;;;;;;15.90;3.97;;;;;;;13.31;56.16;102058.47;5010168;28;20080;-61
2022/05/28 02:52:04;;;;;;;10.73;3.97;;;;;;;13.39;55.88;102048.88;5007891;28;20022;-61
2022/05/28 02:54:30;;;;;;;15.77;4.68;;;;;;;13.31;56.22;102052.88;5012028;28;20117;-61
2022/05/28 02:56:55;;;;;;;11.52;3.90;;;;;;;13.24;56.65;102055.81;5012895;28;20022;-61
2022/05/28 02:59:23;;;;;;;16.67;4.22;;;;;;;13.20;56.30;102049.00;4995759;28;20077;-61
2022/05/28 03:01:50;;;;;;;16.00;4.10;;;;;;;13.20;56.68;102042.53;5009806;28;20029;-61
2022/05/28 03:04:16;;;;;;;13.80;3.75;;;;;;;13.15;56.88;102042.41;5012176;28;20030;-61
2022/05/28 03:06:41;;;;;;;10.63;3.85;;;;;;;13.20;56.95;102039.75;5000997;28;20053;-61
2022/05/28 03:09:11;;;;;;;14.55;4.43;;;;;;;13.14;57.22;102040.72;5006834;28;20057;-61
2022/05/28 03:11:38;;;;;;;12.85;3.75;;;;;;;13.16;56.83;102041.31;5004308;28;21376;-61
2022/05/28 03:14:04;;;;;;;14.70;3.75;;;;;;;13.14;57.43;102044.38;5012072;28;20065;-61
2022/05/28 03:16:29;;;;;;;15.05;4.13;;;;;;;13.20;56.99;102045.31;5009323;28;20445;-61
2022/05/28 03:18:55;;;;;;;9.85;3.92;;;;;;;13.18;57.58;102044.72;5011887;28;20037;-61
2022/05/28 03:21:21;;;;;;;12.50;3.63;;;;;;;13.19;57.30;102049.22;5011524;28;20030;-61
2022/05/28 03:23:49;;;;;;;9.38;3.60;;;;;;;13.17;57.57;102043.03;5001250;28;20422;-61
2022/05/28 03:26:25;;;;;;;13.27;3.42;;;;;;;13.11;57.84;102052.34;5009767;28;20057;-61
2022/05/28 03:28:56;;;;;;;14.32;3.60;;;;;;;13.13;58.10;102053.81;5005033;28;20125;-61
2022/05/28 03:31:24;;;;;;;13.35;3.65;;;;;;;13.22;57.90;102051.53;5008464;28;20049;-61
2022/05/28 03:33:50;;;;;;;11.60;3.13;;;;;;;13.17;58.12;102051.41;5011994;28;20021;-61
2022/05/28 03:36:16;;;;;;;12.43;3.40;;;;;;;13.11;58.07;102047.63;5010186;28;20120;-60
2022/05/28 03:38:42;;;;;;;13.65;3.30;;;;;;;13.13;58.48;102050.19;4999912;28;20399;-61
2022/05/28 03:41:08;;;;;;;17.05;3.88;;;;;;;13.16;58.46;102058.91;5007103;28;20560;-60
2022/05/28 03:43:33;;;;;;;15.38;3.30;;;;;;;13.15;58.09;102056.34;5009793;28;20065;-61
2022/05/28 03:45:58;;;;;;;8.60;3.17;;;;;;;13.07;58.66;102056.72;5010286;28;20038;-60
2022/05/28 03:48:28;;;;;;;11.63;3.75;;;;;;;13.11;58.64;102057.94;5020491;28;20045;-60
2022/05/28 03:50:53;;;;;;;13.23;3.22;;;;;;;13.03;58.83;102053.56;5003271;28;20798;-61
2022/05/28 03:53:19;;;;;;;10.40;3.38;;;;;;;13.07;58.68;102065.09;5011284;28;20021;-61
2022/05/28 03:55:44;;;;;;;14.85;3.45;;;;;;;12.99;59.07;102058.75;5007884;28;20425;-61
2022/05/28 03:58:10;;;;;;;11.95;3.58;;;;;;;12.99;58.87;102060.69;5009021;28;20072;-61
2022/05/28 04:00:39;;;;;;;10.93;3.25;;;;;;;12.97;58.78;102068.47;5011196;28;20449;-61
2022/05/28 04:03:05;;;;;;;10.13;3.25;;;;;;;12.95;59.47;102060.34;4996663;28;20014;-62
2022/05/28 04:05:30;;;;;;;9.88;3.40;;;;;;;12.92;59.35;102068.31;5005188;28;20387;-62
2022/05/28 04:07:56;;;;;;;12.27;3.35;;;;;;;12.93;59.48;102064.44;5010398;28;20030;-62
2022/05/28 04:10:21;;;;;;;12.50;4.15;;;;;;;12.92;59.87;102071.94;5009444;28;20026;-62
2022/05/28 04:12:49;;;;;;;11.55;3.67;;;;;;;12.90;59.72;102070.50;5009417;28;20037;-61
2022/05/28 04:15:14;;;;;;;14.18;3.63;;;;;;;12.93;59.62;102073.66;5008528;28;20044;-62
2022/05/28 04:17:40;;;;;;;10.63;3.58;;;;;;;12.86;59.99;102074.88;5010152;28;20030;-62
2022/05/28 04:20:08;;;;;;;13.85;4.22;;;;;;;12.84;59.75;102069.50;5010310;28;20092;-62
2022/05/28 04:22:33;;;;;;;14.45;3.67;;;;;;;12.94;59.77;102072.56;5016256;28;20068;-62
2022/05/28 04:24:58;;;;;;;11.65;3.42;;;;;;;12.94;59.92;102069.78;5010808;28;20033;-62
2022/05/28 04:27:24;;;;;;;14.23;3.70;;;;;;;12.91;60.17;102075.00;5009081;28;20042;-62
2022/05/28 04:29:49;;;;;;;13.85;3.92;;;;;;;12.86;60.53;102072.94;4999441;28;20046;-62
2022/05/28 04:32:15;;;;;;;14.55;3.88;;;;;;;12.93;60.24;102087.59;5009800;28;20034;-62
2022/05/28 04:34:40;;;;;;;10.68;3.80;;;;;;;12.98;60.03;102087.72;5010069;28;20030;-62
2022/05/28 04:37:05;;;;;;;11.48;4.13;;;;;;;12.94;60.75;102077.31;4995890;28;20074;-62
2022/05/28 04:39:31;;;;;;;8.88;3.05;;;;;;;12.95;60.34;102079.84;5008405;28;20038;-62
2022/05/28 04:41:56;;;;;;;11.98;3.45;;;;;;;13.08;60.46;102081.56;5009751;28;20428;-62
2022/05/28 04:44:21;;;;;;;15.52;4.03;;;;;;;13.08;60.39;102081.56;5010568;28;20400;-59
2022/05/28 04:46:47;;;;;;;12.63;3.80;;;;;;;13.06;60.79;102082.91;5002042;28;20022;-59
2022/05/28 04:49:12;;;;;;;13.23;3.33;;;;;;;13.13;60.57;102089.22;5009720;28;20469;-58
2022/05/28 04:51:37;;;;;;;12.05;3.15;;;;;;;13.15;60.51;102085.09;5007499;28;20601;-61
2022/05/28 04:54:03;;;;;;;13.35;3.63;;;;;;;13.19;60.52;102080.72;5009895;28;20049;-60
2022/05/28 04:56:28;;;;;;;12.95;3.08;;;;;;;13.23;60.39;102086.69;5008481;28;20030;-60
2022/05/28 04:58:54;;;;;;;14.50;3.83;;;;;;;13.20;60.62;102089.94;5010500;28;20084;-60
2022/05/28 05:01:21;;;;;;;12.15;3.25;;;;;;;13.22;61.11;102087.75;5009119;28;20393;-60
2022/05/28 05:03:46;;;;;;;14.55;3.20;;;;;;;13.35;60.79;102092.28;5004398;28;20046;-61
2022/05/28 05:06:11;;;;;;;12.75;3.08;;;;;;;13.34;61.15;102101.75;5003889;28;20532;-61
2022/05/28 05:08:37;;;;;;;14.05;3.50;;;;;;;13.36;61.16;102100.44;5006925;28;20049;-61
2022/05/28 05:11:02;;;;;;;12.35;2.95;;;;;;;13.41;61.33;102108.06;5007244;28;20022;-61
2022/05/28 05:13:28;;;;;;;13.45;3.35;;;;;;;13.47;60.99;102105.13;5008739;28;20382;-61
2022/05/28 05:15:53;;;;;;;17.20;3.28;;;;;;;13.47;61.40;102101.50;5002548;28;20030;-61
2022/05/28 05:18:19;;;;;;;11.65;2.78;;;;;;;13.45;61.71;102110.13;5010001;28;20125;-61
2022/05/28 05:20:44;;;;;;;10.75;3.40;;;;;;;13.53;61.27;102099.72;5008788;28;20030;-61
2022/05/28 05:23:09;;;;;;;11.98;2.78;;;;;;;13.56;62.03;102100.06;5011713;28;20034;-61
2022/05/28 05:25:35;;;;;;;13.43;2.90;;;;;;;13.67;61.53;102101.97;5010600;28;20117;-62
2022/05/28 05:28:00;;;;;;;13.45;2.70;;;;;;;13.77;60.68;102101.38;5011257;28;20038;-62
2022/05/28 05:30:26;;;;;;;13.98;2.63;;;;;;;13.82;61.04;102111.81;5011825;28;20501;-61
2022/05/28 05:32:51;;;;;;;11.70;2.50;;;;;;;13.86;60.47;102111.06;5011695;28;20036;-62
2022/05/28 05:35:17;;;;;;;16.95;2.42;;;;;;;13.92;60.40;102104.53;5014485;28;20128;-62
2022/05/28 05:37:42;;;;;;;13.55;3.17;;;;;;;13.95;60.89;102108.75;5010009;28;20026;-62
2022/05/28 05:40:09;;;;;;;9.27;2.10;;;;;;;14.10;59.64;102113.81;5009915;28;20054;-62
2022/05/28 05:42:34;;;;;;;12.98;2.38;;;;;;;14.19;59.35;102112.38;5014209;28;20088;-62
2022/05/28 05:45:03;;;;;;;9.05;2.10;;;;;;;14.27;58.95;102111.97;4999177;28;20382;-61
2022/05/28 05:47:29;;;;;;;9.02;2.10;;;;;;;14.27;58.70;102119.50;5011561;28;20442;-62
2022/05/28 05:49:55;;;;;;;5.78;1.60;;;;;;;14.35;57.35;102116.34;5003566;28;20105;-61
2022/05/28 05:52:20;;;;;;;7.82;1.88;;;;;;;14.38;57.42;102116.69;5005697;28;20481;-61
2022/05/28 05:54:46;;;;;;;12.48;1.80;;;;;;;14.46;57.32;102115.41;5011605;28;20113;-61
2022/05/28 05:57:11;;;;;;;8.00;1.70;;;;;;;14.46;56.07;102121.00;5012268;28;20092;-61
2022/05/28 05:59:36;;;;;;;9.48;1.77;;;;;;;14.55;55.71;102119.56;5010067;28;20454;-60
2022/05/28 06:02:12;;;;;;;8.27;1.60;;;;;;;14.62;55.62;102120.28;5006493;28;20053;-61
2022/05/28 06:04:38;;;;;;;7.07;1.42;;;;;;;14.66;54.99;102118.66;5007109;28;20143;-61
2022/05/28 06:07:05;;;;;;;8.20;1.63;;;;;;;14.69;54.24;102120.94;5010611;28;20037;-61
2022/05/28 06:09:30;;;;;;;5.85;1.40;;;;;;;14.78;54.55;102118.63;5011578;28;20057;-61
2022/05/28 06:11:55;;;;;;;6.15;1.27;;;;;;;14.89;54.68;102130.81;5011000;28;20081;-61
2022/05/28 06:14:21;;;;;;;7.72;1.70;;;;;;;14.95;54.18;102122.28;5011931;28;20052;-61
2022/05/28 06:16:46;;;;;;;7.65;1.45;;;;;;;15.06;53.99;102130.88;5010625;28;20036;-61
2022/05/28 06:19:11;;;;;;;9.57;1.52;;;;;;;15.06;53.38;102130.88;5009893;28;20030;-61
2022/05/28 06:21:36;;;;;;;7.97;1.58;;;;;;;14.95;53.22;102127.88;5005458;28;20038;-61
2022/05/28 06:24:03;;;;;;;10.93;1.25;;;;;;;14.99;53.18;102131.03;5005473;28;20037;-61
2022/05/28 06:26:28;;;;;;;9.55;1.38;;;;;;;14.96;53.07;102131.50;5009477;28;20393;-62
2022/05/28 06:28:54;;;;;;;6.95;1.70;;;;;;;14.93;53.22;102129.22;5013293;28;20022;-61
2022/05/28 06:31:19;;;;;;;6.85;1.67;;;;;;;14.82;53.19;102136.59;5011320;28;20034;-61
2022/05/28 06:33:45;;;;;;;11.30;2.03;;;;;;;14.83;52.88;102132.69;5010020;28;20355;-61
2022/05/28 06:36:13;;;;;;;7.22;1.17;;;;;;;14.90;53.54;102133.38;5012089;28;20032;-61
2022/05/28 06:38:39;;;;;;;6.82;1.40;;;;;;;15.04;53.05;102133.91;5013005;28;20494;-62
2022/05/28 06:41:05;;;;;;;9.10;1.30;;;;;;;15.13;52.52;102138.00;5011228;28;20038;-64
2022/05/28 06:43:31;;;;;;;4.97;1.50;;;;;;;15.16;52.00;102133.81;5011352;28;20053;-62
2022/05/28 06:45:59;;;;;;;6.35;1.33;;;;;;;15.19;51.57;102141.72;5023344;28;20085;-66
2022/05/28 06:48:26;;;;;;;8.48;1.45;;;;;;;15.16;50.54;102139.41;5018599;28;20034;-62
2022/05/28 06:51:09;;;;;;;13.07;1.85;;;;;;;15.03;50.64;102134.16;5006517;28;20026;-62
2022/05/28 06:53:38;;;;;;;6.35;1.30;;;;;;;15.02;51.00;102143.66;5008550;28;20045;-62
2022/05/28 06:56:05;;;;;;;8.10;1.90;;;;;;;15.03;51.13;102149.00;5008248;28;20480;-64
2022/05/28 06:58:30;;;;;;;6.28;1.42;;;;;;;15.05;50.63;102146.81;5009910;28;20121;-63
2022/05/28 07:00:56;;;;;;;6.40;1.60;;;;;;;15.13;50.41;102148.31;5005163;28;20106;-62
2022/05/28 07:03:25;;;;;;;6.15;1.25;;;;;;;15.18;50.06;102140.88;5007841;28;20045;-62
2022/05/28 07:05:55;;;;;;;6.15;1.40;;;;;;;15.19;49.77;102145.34;5009376;28;20029;-62
2022/05/28 07:08:21;;;;;;;4.15;1.15;;;;;;;15.30;49.74;102149.19;5006433;28;20470;-62
2022/05/28 07:10:52;;;;;;;8.63;1.58;;;;;;;15.46;49.31;102153.09;5008856;28;20026;-62
2022/05/28 07:13:19;;;;;;;5.07;1.17;;;;;;;15.64;49.17;102154.78;4990285;28;20041;-62
2022/05/28 07:15:51;;;;;;;11.45;1.73;;;;;;;15.76;49.00;102151.91;4998343;28;20746;-62
2022/05/28 07:18:19;;;;;;;6.10;1.42;;;;;;;15.92;48.21;102151.91;4995185;28;20030;-63
2022/05/28 07:20:44;;;;;;;3.08;1.35;;;;;;;16.00;45.61;102158.19;5008224;28;20748;-61
2022/05/28 07:23:16;;;;;;;6.65;1.30;;;;;;;16.05;45.61;102156.28;5010319;28;20116;-61
2022/05/28 07:25:43;;;;;;;5.50;1.58;;;;;;;16.06;46.03;102143.97;5001442;28;20038;-62
2022/05/28 07:28:24;;;;;;;10.57;1.67;;;;;;;16.07;45.37;102158.81;5008248;28;20034;-62
2022/05/28 07:30:51;;;;;;;7.13;1.40;;;;;;;16.09;46.52;102146.25;5007906;28;20112;-63
2022/05/28 07:33:18;;;;;;;6.50;1.40;;;;;;;16.12;46.47;102147.72;5010223;28;20037;-62
2022/05/28 07:35:46;;;;;;;6.35;1.38;;;;;;;16.20;45.93;102147.25;5009669;28;20029;-63
2022/05/28 07:38:12;;;;;;;3.70;1.05;;;;;;;16.21;45.93;102143.34;5010056;28;20030;-62
2022/05/28 07:40:37;;;;;;;5.28;1.80;;;;;;;16.20;45.84;102144.44;5003881;28;20111;-63
2022/05/28 07:43:03;;;;;;;4.47;1.27;;;;;;;16.27;45.27;102150.72;5010549;28;20030;-62
2022/05/28 07:45:30;;;;;;;3.83;1.10;;;;;;;16.29;45.24;102151.28;4994104;28;20029;-62
2022/05/28 07:47:57;;;;;;;7.88;1.20;;;;;;;16.28;44.57;102148.75;5009774;28;20029;-62
2022/05/28 07:50:23;;;;;;;7.07;1.40;;;;;;;16.31;45.08;102151.88;5011706;28;20030;-62
2022/05/28 07:52:48;;;;;;;6.78;1.33;;;;;;;16.34;45.67;102148.53;5010838;28;20042;-63
2022/05/28 07:55:14;;;;;;;8.45;1.33;;;;;;;16.46;45.52;102148.41;4994937;28;20027;-63
2022/05/28 07:57:39;;;;;;;6.70;1.25;;;;;;;16.41;44.84;102154.81;5006611;28;20069;-61
2022/05/28 08:00:05;;;;;;;7.50;1.33;;;;;;;16.50;45.12;102152.38;4999171;28;20437;-62
2022/05/28 08:02:30;;;;;;;7.85;1.92;;;;;;;16.56;44.01;102151.34;5001293;28;20041;-62
2022/05/28 08:04:56;;;;;;;6.00;1.20;;;;;;;16.68;43.82;102154.00;5004690;28;20033;-62
2022/05/28 08:07:21;;;;;;;7.70;1.48;;;;;;;16.75;43.09;102148.25;5001720;28;20037;-62
2022/05/28 08:09:49;;;;;;;6.18;1.30;;;;;;;16.83;43.42;102147.78;5010829;28;20014;-62
2022/05/28 08:12:14;;;;;;;7.75;1.40;;;;;;;16.88;43.29;102148.66;5010284;28;20100;-62
2022/05/28 08:14:42;;;;;;;6.13;1.23;;;;;;;16.93;42.87;102137.50;5009663;28;20482;-63
2022/05/28 08:17:08;;;;;;;7.80;1.60;;;;;;;16.84;43.29;102136.28;5011126;28;20033;-62
2022/05/28 08:19:34;;;;;;;6.70;1.65;;;;;;;16.76;44.15;102138.72;5009984;28;20036;-62
2022/05/28 08:24:49;;;;;;;7.78;1.60;;;;;;;16.70;43.97;102143.38;5007877;28;20053;-62
2022/05/28 08:27:14;;;;;;;6.63;1.38;;;;;;;16.63;44.24;102143.59;5010547;28;20034;-63
2022/05/28 08:29:39;;;;;;;6.65;1.50;;;;;;;16.72;44.87;102134.72;5010707;28;20036;-64
2022/05/28 08:32:05;;;;;;;6.43;1.30;;;;;;;16.69;44.18;102152.91;5012612;28;20061;-66
2022/05/28 08:34:30;;;;;;;8.38;1.45;;;;;;;16.87;48.81;102141.38;5013553;28;20041;-63
2022/05/28 08:36:56;;;;;;;4.72;1.15;;;;;;;16.68;45.26;102142.81;5006378;28;20490;-63
2022/05/28 08:39:21;;;;;;;6.15;1.52;;;;;;;16.71;44.19;102147.88;5004582;28;20576;-64
2022/05/28 08:41:57;;;;;;;6.38;1.40;;;;;;;16.78;44.34;102139.28;5002525;28;20452;-63
2022/05/28 08:44:33;;;;;;;9.88;1.67;;;;;;;16.68;44.00;102143.66;5006209;28;20072;-63
2022/05/28 08:47:09;;;;;;;4.82;1.40;;;;;;;16.69;43.98;102138.88;5003969;28;20021;-65
2022/05/28 08:49:37;;;;;;;5.13;1.13;;;;;;;16.80;43.85;102137.91;5006958;28;20040;-64
2022/05/28 08:52:05;;;;;;;7.22;1.38;;;;;;;16.86;42.33;102141.66;5007494;28;20781;-66
2022/05/28 08:54:58;;;;;;;7.20;1.15;;;;;;;16.87;42.53;102137.72;5007437;28;20045;-65
2022/05/28 08:57:48;;;;;;;4.82;1.40;;;;;;;17.00;43.43;102144.84;5011043;28;20052;-65
2022/05/28 09:00:18;;;;;;;8.50;1.58;;;;;;;17.15;42.94;102142.22;5005843;28;20034;-65
2022/05/28 09:02:49;;;;;;;7.88;1.38;;;;;;;17.18;43.12;102139.72;5007743;28;20030;-65
2022/05/28 09:05:22;;;;;;;7.43;1.48;;;;;;;17.18;42.60;102133.25;5003882;28;20041;-64
2022/05/28 09:07:48;;;;;;;3.33;1.15;;;;;;;17.29;42.62;102142.59;5007129;28;20040;-63
2022/05/28 09:10:13;;;;;;;4.55;1.30;;;;;;;17.18;41.25;102133.25;5009097;28;20042;-62
2022/05/28 09:12:45;;;;;;;5.88;1.15;;;;;;;17.08;41.19;102138.75;5008775;28;20461;-63
2022/05/28 09:15:11;;;;;;;6.25;1.20;;;;;;;16.98;42.82;102142.31;5006428;28;20036;-62
2022/05/28 09:17:41;;;;;;;7.35;1.55;;;;;;;17.06;42.97;102143.81;5006720;28;20032;-65
2022/05/28 09:20:13;;;;;;;5.28;1.27;;;;;;;17.07;43.23;102151.09;5005102;28;20462;-63
2022/05/28 09:22:38;;;;;;;9.07;2.17;;;;;;;17.10;43.68;102142.16;5003618;28;20145;-61
2022/05/28 09:25:04;;;;;;;9.57;1.67;;;;;;;17.19;43.92;102140.56;5006343;28;20420;-65
2022/05/28 09:27:54;;;;;;;6.07;1.33;;;;;;;17.32;43.79;102134.50;4998327;28;20038;-61
2022/05/28 09:30:45;;;;;;;3.95;1.27;;;;;;;17.47;43.70;102130.13;5005795;28;20477;-62
2022/05/28 09:33:48;;;;;;;7.18;1.42;;;;;;;17.52;42.35;102124.56;5005341;28;20117;-63
2022/05/28 09:36:22;;;;;;;8.65;1.30;;;;;;;17.53;41.58;102132.72;5003659;28;20040;-63
2022/05/28 09:39:04;;;;;;;6.40;1.30;;;;;;;17.69;41.25;102130.88;5006297;28;20060;-62
2022/05/28 09:41:49;;;;;;;4.45;1.15;;;;;;;17.79;40.54;102130.13;5002965;28;20052;-63
2022/05/28 09:44:30;;;;;;;4.55;1.27;;;;;;;17.77;39.83;102126.75;5005422;28;20088;-63
2022/05/28 09:47:06;;;;;;;6.03;1.35;;;;;;;17.58;40.40;102126.28;5006108;28;20473;-63
2022/05/28 09:49:31;;;;;;;5.10;1.20;;;;;;;17.53;40.14;102127.09;5005206;28;20032;-65
2022/05/28 09:52:04;;;;;;;4.18;1.23;;;;;;;17.51;40.03;102123.72;5006825;28;20037;-64
2022/05/28 09:54:33;;;;;;;3.95;1.15;;;;;;;17.61;40.37;102128.56;5006372;28;20033;-64
2022/05/28 09:57:24;;;;;;;7.18;1.50;;;;;;;17.63;41.43;102120.72;5005991;28;20167;-63
2022/05/28 10:00:06;;;;;;;6.78;1.10;;;;;;;17.69;41.21;102119.66;5004354;28;20079;-62
2022/05/28 10:02:41;;;;;;;8.73;1.63;;;;;;;17.70;41.44;102120.47;5004220;28;20025;-62
2022/05/28 10:05:20;;;;;;;8.98;1.50;;;;;;;17.70;41.78;102126.09;5002947;28;20033;-63
2022/05/28 10:07:51;;;;;;;7.78;1.42;;;;;;;17.65;41.05;102122.16;5007564;28;20125;-62
2022/05/28 10:10:27;;;;;;;3.88;1.35;;;;;;;17.62;41.98;102121.84;5002897;28;20080;-64
2022/05/28 10:13:04;;;;;;;7.93;1.63;;;;;;;17.77;42.72;102123.94;5005107;28;20037;-64
2022/05/28 10:15:37;;;;;;;9.65;1.63;;;;;;;17.84;42.58;102116.09;5005723;28;20392;-62
2022/05/28 10:18:08;;;;;;;7.10;1.65;;;;;;;17.83;41.79;102115.25;5006068;28;20032;-62
2022/05/28 10:20:33;;;;;;;8.43;1.75;;;;;;;17.64;41.68;102122.41;5008924;28;20017;-63
2022/05/28 10:23:10;;;;;;;5.65;1.27;;;;;;;17.61;39.70;102111.72;5009444;28;20140;-64
2022/05/28 10:25:53;;;;;;;4.43;1.20;;;;;;;17.69;40.61;102125.25;5006644;28;20048;-63
2022/05/28 10:28:40;;;;;;;5.45;1.08;;;;;;;17.78;40.98;102106.81;5003622;28;20092;-65
2022/05/28 10:31:15;;;;;;;6.35;1.38;;;;;;;17.92;40.32;102107.19;5002653;28;20034;-63
2022/05/28 10:33:43;;;;;;;8.38;1.50;;;;;;;17.96;39.17;102104.66;5005760;28;20505;-65
2022/05/28 10:36:13;;;;;;;7.00;1.27;;;;;;;18.12;38.83;102104.47;5006260;28;20091;-62
2022/05/28 10:38:39;;;;;;;4.45;1.42;;;;;;;18.12;37.31;102107.28;5004878;28;20066;-61
2022/05/28 10:41:17;;;;;;;3.95;1.20;;;;;;;18.03;37.29;102103.28;5003615;28;20072;-62
2022/05/28 10:43:42;;;;;;;5.53;1.27;;;;;;;18.04;37.34;102107.81;5005095;28;20740;-60
2022/05/28 10:46:34;;;;;;;7.68;0.98;;;;;;;18.00;37.94;102102.97;5003467;28;20085;-63
2022/05/28 10:49:20;;;;;;;4.72;1.20;;;;;;;18.15;36.63;102112.34;5006152;28;20607;-62
2022/05/28 10:52:20;;;;;;;3.72;0.80;;;;;;;18.26;36.83;102106.78;5006267;28;20033;-63
2022/05/28 10:55:05;;;;;;;3.15;0.82;;;;;;;18.34;35.98;102104.28;5007386;28;20030;-62
2022/05/28 10:57:38;;;;;;;5.03;1.20;;;;;;;18.49;36.78;102106.31;5005789;28;20065;-63
2022/05/28 11:00:23;;;;;;;5.47;1.40;;;;;;;18.61;37.30;102108.88;5004324;28;20359;-63
2022/05/28 11:03:30;;;;;;;5.65;1.20;;;;;;;18.54;36.12;102097.03;5003811;28;20034;-64
2022/05/28 11:06:26;;;;;;;8.38;1.33;;;;;;;18.58;36.10;102092.53;5006515;28;20148;-64
2022/05/28 11:09:10;;;;;;;2.78;1.02;;;;;;;18.70;35.39;102101.59;5004031;28;20480;-64
2022/05/28 11:11:57;;;;;;;6.90;1.40;;;;;;;18.82;36.44;102095.72;5008012;28;20030;-64
2022/05/28 11:14:51;;;;;;;6.03;1.33;;;;;;;18.89;37.43;102088.72;5005591;28;20030;-63
2022/05/28 11:17:36;;;;;;;11.13;1.77;;;;;;;18.77;36.81;102106.97;5005639;28;20029;-64
2022/05/28 11:20:13;;;;;;;4.57;1.15;;;;;;;18.56;36.36;102108.88;5005979;28;20043;-64
2022/05/28 11:22:45;;;;;;;4.18;1.20;;;;;;;18.56;35.81;102100.44;5003304;28;20038;-65
2022/05/28 11:25:29;;;;;;;6.38;1.38;;;;;;;18.61;35.04;102097.63;5007496;28;20037;-64
2022/05/28 11:28:23;;;;;;;6.05;0.90;;;;;;;18.73;33.57;102092.63;5004476;28;20025;-63
2022/05/28 11:30:53;;;;;;;3.72;1.10;;;;;;;18.72;33.16;102088.13;4993258;28;20153;-63
2022/05/28 11:33:21;;;;;;;4.32;1.05;;;;;;;18.76;33.68;102078.00;5007828;28;20481;-64
2022/05/28 11:35:52;;;;;;;3.60;0.85;;;;;;;18.73;34.58;102083.34;4999340;28;20500;-64
2022/05/28 11:38:40;;;;;;;6.05;1.35;;;;;;;18.70;34.71;102090.34;5004309;28;20065;-64